sensor_id;sensor_type;location;lat;lon;timestamp;pressure;altitude;pressure_sealevel;temperature;humidity
11124;BME280;5616;42.692;23.312;2023-02-11T00:00:56;96824.25;;;-0.92;63.48
11124;BME280;5616;42.692;23.312;2023-02-11T00:03:23;96833.41;;;-0.88;62.99
11124;BME280;5616;42.692;23.312;2023-02-11T00:05:57;96828.25;;;-0.86;62.89
11124;BME280;5616;42.692;23.312;2023-02-11T00:08:25;96829.69;;;-0.99;62.74
11124;BME280;5616;42.692;23.312;2023-02-11T00:10:52;96822.91;;;-0.99;63.09
11124;BME280;5616;42.692;23.312;2023-02-11T00:13:19;96832.69;;;-0.91;62.33
11124;BME280;5616;42.692;23.312;2023-02-11T00:15:47;96826.88;;;-1.12;63.28
11124;BME280;5616;42.692;23.312;2023-02-11T00:18:14;96831.19;;;-1.14;63.34
11124;BME280;5616;42.692;23.312;2023-02-11T00:20:42;96822.88;;;-1.17;63.29
11124;BME280;5616;42.692;23.312;2023-02-11T00:23:09;96829.63;;;-1.16;63.19
11124;BME280;5616;42.692;23.312;2023-02-11T00:25:38;96833.59;;;-1.11;63.02
11124;BME280;5616;42.692;23.312;2023-02-11T00:28:05;96825.78;;;-1.06;62.67
11124;BME280;5616;42.692;23.312;2023-02-11T00:30:31;96825.69;;;-1.05;62.53
11124;BME280;5616;42.692;23.312;2023-02-11T00:33:00;96826.66;;;-1.07;63.01
11124;BME280;5616;42.692;23.312;2023-02-11T00:35:27;96824.81;;;-1.04;62.36
11124;BME280;5616;42.692;23.312;2023-02-11T00:37:55;96824.91;;;-1.05;62.28
11124;BME280;5616;42.692;23.312;2023-02-11T00:40:22;96830.03;;;-1.07;61.85
11124;BME280;5616;42.692;23.312;2023-02-11T00:42:48;96821.66;;;-1.09;61.84
11124;BME280;5616;42.692;23.312;2023-02-11T00:45:15;96827.09;;;-1.16;62.23
11124;BME280;5616;42.692;23.312;2023-02-11T00:47:42;96818.53;;;-1.14;61.83
11124;BME280;5616;42.692;23.312;2023-02-11T00:50:10;96820.72;;;-1.06;61.92
11124;BME280;5616;42.692;23.312;2023-02-11T00:52:37;96810.78;;;-1.11;62.17
11124;BME280;5616;42.692;23.312;2023-02-11T00:55:04;96812.84;;;-1.19;61.88
11124;BME280;5616;42.692;23.312;2023-02-11T00:57:32;96811.75;;;-1.13;64.31
11124;BME280;5616;42.692;23.312;2023-02-11T00:59:58;96812.75;;;-1.17;63.03
11124;BME280;5616;42.692;23.312;2023-02-11T01:02:25;96810.97;;;-1.15;62.74
11124;BME280;5616;42.692;23.312;2023-02-11T01:04:52;96813.63;;;-1.18;62.01
11124;BME280;5616;42.692;23.312;2023-02-11T01:07:20;96808.78;;;-1.23;62.41
11124;BME280;5616;42.692;23.312;2023-02-11T01:09:47;96806.44;;;-1.28;63.10
11124;BME280;5616;42.692;23.312;2023-02-11T01:12:14;96805.50;;;-1.25;62.86
11124;BME280;5616;42.692;23.312;2023-02-11T01:14:41;96785.59;;;-1.34;63.35
11124;BME280;5616;42.692;23.312;2023-02-11T01:17:08;96808.75;;;-1.42;62.90
11124;BME280;5616;42.692;23.312;2023-02-11T01:19:35;96809.09;;;-1.31;62.35
11124;BME280;5616;42.692;23.312;2023-02-11T01:22:02;96805.63;;;-1.28;62.69
11124;BME280;5616;42.692;23.312;2023-02-11T01:24:31;96803.16;;;-1.30;62.22
11124;BME280;5616;42.692;23.312;2023-02-11T01:26:58;96799.72;;;-1.29;62.22
11124;BME280;5616;42.692;23.312;2023-02-11T01:29:25;96802.22;;;-1.27;62.40
11124;BME280;5616;42.692;23.312;2023-02-11T01:31:53;96801.47;;;-1.29;62.22
11124;BME280;5616;42.692;23.312;2023-02-11T01:34:20;96798.09;;;-1.30;61.46
11124;BME280;5616;42.692;23.312;2023-02-11T01:36:48;96801.63;;;-1.34;61.68
11124;BME280;5616;42.692;23.312;2023-02-11T01:39:15;96799.09;;;-1.34;61.91
11124;BME280;5616;42.692;23.312;2023-02-11T01:41:46;96796.53;;;-1.32;62.54
11124;BME280;5616;42.692;23.312;2023-02-11T01:44:29;96790.84;;;-1.37;62.26
11124;BME280;5616;42.692;23.312;2023-02-11T01:46:56;96783.28;;;-1.39;61.68
11124;BME280;5616;42.692;23.312;2023-02-11T01:49:26;96790.88;;;-1.39;61.95
11124;BME280;5616;42.692;23.312;2023-02-11T01:51:57;96796.03;;;-1.40;62.13
11124;BME280;5616;42.692;23.312;2023-02-11T01:54:29;96790.25;;;-1.44;62.51
11124;BME280;5616;42.692;23.312;2023-02-11T01:57:19;96792.25;;;-1.50;62.12
11124;BME280;5616;42.692;23.312;2023-02-11T01:59:56;96793.84;;;-1.48;62.20
11124;BME280;5616;42.692;23.312;2023-02-11T02:02:30;96785.19;;;-1.44;62.63
11124;BME280;5616;42.692;23.312;2023-02-11T02:05:02;96795.19;;;-1.41;62.75
11124;BME280;5616;42.692;23.312;2023-02-11T02:07:33;96791.13;;;-1.45;62.37
11124;BME280;5616;42.692;23.312;2023-02-11T02:10:06;96792.31;;;-1.52;63.00
11124;BME280;5616;42.692;23.312;2023-02-11T02:12:36;96796.88;;;-1.60;62.98
11124;BME280;5616;42.692;23.312;2023-02-11T02:15:26;96794.34;;;-1.60;63.21
11124;BME280;5616;42.692;23.312;2023-02-11T02:17:57;96793.09;;;-1.70;63.76
11124;BME280;5616;42.692;23.312;2023-02-11T02:21:02;96794.66;;;-1.67;63.32
11124;BME280;5616;42.692;23.312;2023-02-11T02:26:53;96796.88;;;-1.60;61.99
11124;BME280;5616;42.692;23.312;2023-02-11T02:29:49;96788.66;;;-1.65;62.84
11124;BME280;5616;42.692;23.312;2023-02-11T02:32:30;96786.69;;;-1.58;63.03
11124;BME280;5616;42.692;23.312;2023-02-11T02:35:04;96797.91;;;-1.64;62.61
11124;BME280;5616;42.692;23.312;2023-02-11T02:37:39;96791.44;;;-1.71;62.41
11124;BME280;5616;42.692;23.312;2023-02-11T02:40:11;96789.84;;;-1.73;62.80
11124;BME280;5616;42.692;23.312;2023-02-11T02:42:41;96790.13;;;-1.79;62.90
11124;BME280;5616;42.692;23.312;2023-02-11T02:45:10;96783.44;;;-2.01;63.80
11124;BME280;5616;42.692;23.312;2023-02-11T02:47:39;96788.22;;;-1.95;63.03
11124;BME280;5616;42.692;23.312;2023-02-11T02:50:07;96794.31;;;-1.99;63.35
11124;BME280;5616;42.692;23.312;2023-02-11T02:52:36;96790.94;;;-1.99;62.99
11124;BME280;5616;42.692;23.312;2023-02-11T02:55:21;96789.16;;;-1.97;63.38
11124;BME280;5616;42.692;23.312;2023-02-11T02:58:16;96790.94;;;-1.99;62.89
11124;BME280;5616;42.692;23.312;2023-02-11T03:00:55;96787.78;;;-2.04;63.17
11124;BME280;5616;42.692;23.312;2023-02-11T03:03:35;96790.25;;;-2.03;63.55
11124;BME280;5616;42.692;23.312;2023-02-11T03:06:10;96792.09;;;-2.06;63.40
11124;BME280;5616;42.692;23.312;2023-02-11T03:08:42;96789.59;;;-2.08;63.42
11124;BME280;5616;42.692;23.312;2023-02-11T03:11:14;96789.59;;;-2.08;63.26
11124;BME280;5616;42.692;23.312;2023-02-11T03:13:43;96787.28;;;-2.12;63.75
11124;BME280;5616;42.692;23.312;2023-02-11T03:16:14;96796.25;;;-2.05;63.10
11124;BME280;5616;42.692;23.312;2023-02-11T03:18:48;96786.84;;;-2.02;62.59
11124;BME280;5616;42.692;23.312;2023-02-11T03:21:17;96795.19;;;-2.00;63.23
11124;BME280;5616;42.692;23.312;2023-02-11T03:23:48;96786.09;;;-2.04;63.19
11124;BME280;5616;42.692;23.312;2023-02-11T03:26:21;96791.50;;;-2.13;63.79
11124;BME280;5616;42.692;23.312;2023-02-11T03:28:54;96796.41;;;-2.08;63.29
11124;BME280;5616;42.692;23.312;2023-02-11T03:31:29;96798.84;;;-2.07;62.97
11124;BME280;5616;42.692;23.312;2023-02-11T03:34:04;96785.38;;;-2.07;63.36
11124;BME280;5616;42.692;23.312;2023-02-11T03:36:38;96794.63;;;-2.06;63.60
11124;BME280;5616;42.692;23.312;2023-02-11T03:39:11;96792.97;;;-2.07;63.15
11124;BME280;5616;42.692;23.312;2023-02-11T03:41:41;96791.47;;;-2.11;63.98
11124;BME280;5616;42.692;23.312;2023-02-11T03:44:09;96786.00;;;-2.22;64.34
11124;BME280;5616;42.692;23.312;2023-02-11T03:46:41;96783.34;;;-2.19;63.58
11124;BME280;5616;42.692;23.312;2023-02-11T03:49:12;96785.28;;;-2.26;64.01
11124;BME280;5616;42.692;23.312;2023-02-11T03:51:42;96781.94;;;-2.26;64.23
11124;BME280;5616;42.692;23.312;2023-02-11T03:54:14;96785.94;;;-2.21;63.54
11124;BME280;5616;42.692;23.312;2023-02-11T03:56:50;96781.81;;;-2.23;63.61
11124;BME280;5616;42.692;23.312;2023-02-11T03:59:17;96790.03;;;-2.18;63.39
11124;BME280;5616;42.692;23.312;2023-02-11T04:01:44;96791.81;;;-2.20;63.56
11124;BME280;5616;42.692;23.312;2023-02-11T04:04:12;96794.44;;;-2.22;63.42
11124;BME280;5616;42.692;23.312;2023-02-11T04:06:39;96790.31;;;-2.24;63.85
11124;BME280;5616;42.692;23.312;2023-02-11T04:09:08;96793.00;;;-2.29;63.68
11124;BME280;5616;42.692;23.312;2023-02-11T04:11:35;96792.88;;;-2.26;63.43
11124;BME280;5616;42.692;23.312;2023-02-11T04:14:02;96792.06;;;-2.26;63.59
11124;BME280;5616;42.692;23.312;2023-02-11T04:16:28;96791.06;;;-2.22;63.41
11124;BME280;5616;42.692;23.312;2023-02-11T04:18:55;96783.66;;;-2.27;64.43
11124;BME280;5616;42.692;23.312;2023-02-11T04:21:23;96783.72;;;-2.28;63.76
11124;BME280;5616;42.692;23.312;2023-02-11T04:23:50;96786.25;;;-2.28;63.91
11124;BME280;5616;42.692;23.312;2023-02-11T04:26:17;96787.94;;;-2.29;64.17
11124;BME280;5616;42.692;23.312;2023-02-11T04:28:44;96783.16;;;-2.35;64.07
11124;BME280;5616;42.692;23.312;2023-02-11T04:31:11;96788.22;;;-2.35;63.90
11124;BME280;5616;42.692;23.312;2023-02-11T04:33:37;96778.66;;;-2.28;64.26
11124;BME280;5616;42.692;23.312;2023-02-11T04:36:05;96784.91;;;-2.37;63.90
11124;BME280;5616;42.692;23.312;2023-02-11T04:38:34;96785.59;;;-2.33;63.98
11124;BME280;5616;42.692;23.312;2023-02-11T04:41:01;96766.44;;;-2.39;64.36
11124;BME280;5616;42.692;23.312;2023-02-11T04:43:27;96773.34;;;-2.42;64.35
11124;BME280;5616;42.692;23.312;2023-02-11T04:45:56;96770.16;;;-2.48;64.37
11124;BME280;5616;42.692;23.312;2023-02-11T04:48:23;96767.97;;;-2.35;64.65
11124;BME280;5616;42.692;23.312;2023-02-11T04:50:49;96781.81;;;-2.23;63.38
11124;BME280;5616;42.692;23.312;2023-02-11T04:53:16;96761.59;;;-2.23;63.49
11124;BME280;5616;42.692;23.312;2023-02-11T04:55:47;96771.06;;;-2.28;63.31
11124;BME280;5616;42.692;23.312;2023-02-11T04:58:14;96771.50;;;-2.39;64.94
11124;BME280;5616;42.692;23.312;2023-02-11T05:00:41;96769.72;;;-2.37;64.58
11124;BME280;5616;42.692;23.312;2023-02-11T05:03:08;96769.91;;;-2.41;64.95
11124;BME280;5616;42.692;23.312;2023-02-11T05:05:37;96769.47;;;-2.51;65.05
11124;BME280;5616;42.692;23.312;2023-02-11T05:08:03;96767.16;;;-2.57;65.27
11124;BME280;5616;42.692;23.312;2023-02-11T05:10:30;96769.50;;;-2.53;65.81
11124;BME280;5616;42.692;23.312;2023-02-11T05:12:59;96751.00;;;-2.53;65.22
11124;BME280;5616;42.692;23.312;2023-02-11T05:15:26;96763.00;;;-2.58;65.43
11124;BME280;5616;42.692;23.312;2023-02-11T05:17:53;96758.03;;;-1.03;89.28
11124;BME280;5616;42.692;23.312;2023-02-11T05:20:20;96763.91;;;-1.58;76.99
11124;BME280;5616;42.692;23.312;2023-02-11T05:22:47;96774.16;;;-1.81;67.49
11124;BME280;5616;42.692;23.312;2023-02-11T05:25:14;96766.16;;;-1.91;65.55
11124;BME280;5616;42.692;23.312;2023-02-11T05:27:41;96771.44;;;-1.97;64.69
11124;BME280;5616;42.692;23.312;2023-02-11T05:30:10;96767.78;;;-2.10;64.99
11124;BME280;5616;42.692;23.312;2023-02-11T05:32:37;96769.28;;;-2.26;65.47
11124;BME280;5616;42.692;23.312;2023-02-11T05:35:04;96773.47;;;-2.45;65.27
11124;BME280;5616;42.692;23.312;2023-02-11T05:37:31;96766.09;;;-2.52;66.04
11124;BME280;5616;42.692;23.312;2023-02-11T05:39:58;96767.34;;;-2.62;65.73
11124;BME280;5616;42.692;23.312;2023-02-11T05:42:24;96772.81;;;-2.72;66.06
11124;BME280;5616;42.692;23.312;2023-02-11T05:44:51;96765.53;;;-2.80;66.88
11124;BME280;5616;42.692;23.312;2023-02-11T05:47:19;96766.91;;;-2.93;66.67
11124;BME280;5616;42.692;23.312;2023-02-11T05:49:46;96773.03;;;-3.00;66.81
11124;BME280;5616;42.692;23.312;2023-02-11T05:52:13;96774.88;;;-3.03;67.04
11124;BME280;5616;42.692;23.312;2023-02-11T05:54:40;96774.91;;;-3.05;67.75
11124;BME280;5616;42.692;23.312;2023-02-11T05:57:07;96777.72;;;-3.13;67.57
11124;BME280;5616;42.692;23.312;2023-02-11T05:59:33;96778.63;;;-3.14;67.79
11124;BME280;5616;42.692;23.312;2023-02-11T06:02:00;96783.72;;;-3.15;67.16
11124;BME280;5616;42.692;23.312;2023-02-11T06:04:29;96782.22;;;-3.19;67.49
11124;BME280;5616;42.692;23.312;2023-02-11T06:06:55;96780.94;;;-3.31;67.53
11124;BME280;5616;42.692;23.312;2023-02-11T06:09:22;96777.88;;;-3.39;67.45
11124;BME280;5616;42.692;23.312;2023-02-11T06:11:49;96780.50;;;-3.42;67.92
11124;BME280;5616;42.692;23.312;2023-02-11T06:14:16;96789.56;;;-3.36;67.83
11124;BME280;5616;42.692;23.312;2023-02-11T06:16:43;96787.13;;;-3.39;67.38
11124;BME280;5616;42.692;23.312;2023-02-11T06:19:10;96778.16;;;-3.46;67.61
11124;BME280;5616;42.692;23.312;2023-02-11T06:21:38;96788.91;;;-3.41;67.47
11124;BME280;5616;42.692;23.312;2023-02-11T06:24:06;96791.38;;;-3.40;67.09
11124;BME280;5616;42.692;23.312;2023-02-11T06:26:33;96783.56;;;-3.34;67.52
11124;BME280;5616;42.692;23.312;2023-02-11T06:29:00;96781.28;;;-3.40;67.95
11124;BME280;5616;42.692;23.312;2023-02-11T06:31:27;96793.84;;;-3.38;68.39
11124;BME280;5616;42.692;23.312;2023-02-11T06:33:54;96784.28;;;-3.30;67.94
11124;BME280;5616;42.692;23.312;2023-02-11T06:36:21;96793.50;;;-3.29;68.30
11124;BME280;5616;42.692;23.312;2023-02-11T06:38:51;96783.84;;;-3.41;68.92
11124;BME280;5616;42.692;23.312;2023-02-11T06:41:18;96791.22;;;-3.35;69.36
11124;BME280;5616;42.692;23.312;2023-02-11T06:43:45;96795.69;;;-3.20;68.23
11124;BME280;5616;42.692;23.312;2023-02-11T06:46:13;96777.03;;;-3.16;68.22
11124;BME280;5616;42.692;23.312;2023-02-11T06:48:40;96792.28;;;-2.96;67.60
11124;BME280;5616;42.692;23.312;2023-02-11T06:51:09;96798.75;;;-2.89;67.96
11124;BME280;5616;42.692;23.312;2023-02-11T06:53:37;96791.69;;;-2.81;67.82
11124;BME280;5616;42.692;23.312;2023-02-11T06:56:07;96793.06;;;-2.72;67.48
11124;BME280;5616;42.692;23.312;2023-02-11T06:58:35;96800.41;;;-2.66;67.30
11124;BME280;5616;42.692;23.312;2023-02-11T07:01:03;96790.88;;;-2.60;66.60
11124;BME280;5616;42.692;23.312;2023-02-11T07:03:32;96803.03;;;-2.48;66.45
11124;BME280;5616;42.692;23.312;2023-02-11T07:06:00;96803.84;;;-2.47;66.12
11124;BME280;5616;42.692;23.312;2023-02-11T07:08:27;96799.69;;;-2.48;67.25
11124;BME280;5616;42.692;23.312;2023-02-11T07:10:54;96794.13;;;-2.36;67.01
11124;BME280;5616;42.692;23.312;2023-02-11T07:13:22;96790.53;;;-2.30;66.87
11124;BME280;5616;42.692;23.312;2023-02-11T07:15:49;96782.72;;;-2.24;66.94
11124;BME280;5616;42.692;23.312;2023-02-11T07:18:16;96784.81;;;-2.14;66.41
11124;BME280;5616;42.692;23.312;2023-02-11T07:20:42;96786.22;;;-2.07;66.19
11124;BME280;5616;42.692;23.312;2023-02-11T07:23:09;96781.94;;;-2.26;66.55
11124;BME280;5616;42.692;23.312;2023-02-11T07:25:36;96792.47;;;-2.15;65.93
11124;BME280;5616;42.692;23.312;2023-02-11T07:28:03;96784.63;;;-2.09;65.56
11124;BME280;5616;42.692;23.312;2023-02-11T07:30:31;96776.50;;;-1.97;65.52
11124;BME280;5616;42.692;23.312;2023-02-11T07:32:58;96769.31;;;-1.86;65.19
11124;BME280;5616;42.692;23.312;2023-02-11T07:35:25;96765.38;;;-1.73;64.40
11124;BME280;5616;42.692;23.312;2023-02-11T07:37:52;96769.28;;;-1.66;64.67
11124;BME280;5616;42.692;23.312;2023-02-11T07:40:19;96772.72;;;-1.67;65.06
11124;BME280;5616;42.692;23.312;2023-02-11T07:42:46;96758.63;;;-1.54;64.42
11124;BME280;5616;42.692;23.312;2023-02-11T07:45:12;96764.94;;;-1.44;63.95
11124;BME280;5616;42.692;23.312;2023-02-11T07:47:41;96756.38;;;-1.41;64.37
11124;BME280;5616;42.692;23.312;2023-02-11T07:50:08;96758.56;;;-1.34;64.60
11124;BME280;5616;42.692;23.312;2023-02-11T07:52:35;96754.72;;;-1.24;64.80
11124;BME280;5616;42.692;23.312;2023-02-11T07:55:02;96760.97;;;-1.12;63.79
11124;BME280;5616;42.692;23.312;2023-02-11T07:57:28;96758.91;;;-1.04;63.19
11124;BME280;5616;42.692;23.312;2023-02-11T07:59:55;96753.41;;;-0.95;63.20
11124;BME280;5616;42.692;23.312;2023-02-11T08:02:22;96754.81;;;-0.88;63.52
11124;BME280;5616;42.692;23.312;2023-02-11T08:04:50;96746.69;;;-0.77;63.19
11124;BME280;5616;42.692;23.312;2023-02-11T08:07:18;96745.63;;;-0.90;63.73
11124;BME280;5616;42.692;23.312;2023-02-11T08:09:45;96749.75;;;-0.71;62.64
11124;BME280;5616;42.692;23.312;2023-02-11T08:12:11;96755.69;;;-0.53;63.15
11124;BME280;5616;42.692;23.312;2023-02-11T08:14:38;96757.88;;;-0.45;62.01
11124;BME280;5616;42.692;23.312;2023-02-11T08:17:05;96750.16;;;-0.44;61.67
11124;BME280;5616;42.692;23.312;2023-02-11T08:19:32;96751.97;;;-0.29;61.53
11124;BME280;5616;42.692;23.312;2023-02-11T08:22:00;96753.19;;;-0.19;61.47
11124;BME280;5616;42.692;23.312;2023-02-11T08:24:27;96750.03;;;-0.07;60.85
11124;BME280;5616;42.692;23.312;2023-02-11T08:26:54;96749.75;;;-0.01;60.76
11124;BME280;5616;42.692;23.312;2023-02-11T08:29:21;96747.34;;;-0.04;60.82
11124;BME280;5616;42.692;23.312;2023-02-11T08:31:48;96744.34;;;0.06;60.76
11124;BME280;5616;42.692;23.312;2023-02-11T08:34:15;96737.84;;;0.17;60.60
11124;BME280;5616;42.692;23.312;2023-02-11T08:36:44;96743.94;;;0.30;60.38
11124;BME280;5616;42.692;23.312;2023-02-11T08:39:15;96744.63;;;0.34;59.39
11124;BME280;5616;42.692;23.312;2023-02-11T08:41:42;96743.94;;;0.30;59.82
11124;BME280;5616;42.692;23.312;2023-02-11T08:44:09;96743.63;;;0.36;59.29
11124;BME280;5616;42.692;23.312;2023-02-11T08:46:36;96743.16;;;0.45;59.13
11124;BME280;5616;42.692;23.312;2023-02-11T08:49:03;96739.03;;;0.43;60.28
11124;BME280;5616;42.692;23.312;2023-02-11T08:51:31;96748.00;;;0.50;59.49
11124;BME280;5616;42.692;23.312;2023-02-11T08:53:59;96752.16;;;0.68;59.04
11124;BME280;5616;42.692;23.312;2023-02-11T08:56:28;96744.94;;;0.76;58.60
11124;BME280;5616;42.692;23.312;2023-02-11T08:58:56;96743.13;;;0.78;59.21
11124;BME280;5616;42.692;23.312;2023-02-11T09:01:24;96742.88;;;0.98;58.59
11124;BME280;5616;42.692;23.312;2023-02-11T09:03:52;96743.22;;;1.08;58.56
11124;BME280;5616;42.692;23.312;2023-02-11T09:06:20;96737.63;;;0.86;58.79
11124;BME280;5616;42.692;23.312;2023-02-11T09:08:48;96735.56;;;0.92;59.22
11124;BME280;5616;42.692;23.312;2023-02-11T09:11:16;96725.22;;;1.11;58.13
11124;BME280;5616;42.692;23.312;2023-02-11T09:13:45;96732.53;;;1.33;57.64
11124;BME280;5616;42.692;23.312;2023-02-11T09:16:17;96726.56;;;1.48;57.26
11124;BME280;5616;42.692;23.312;2023-02-11T09:18:45;96726.44;;;1.35;57.17
11124;BME280;5616;42.692;23.312;2023-02-11T09:21:12;96726.34;;;1.52;56.80
11124;BME280;5616;42.692;23.312;2023-02-11T09:23:39;96720.88;;;1.29;56.74
11124;BME280;5616;42.692;23.312;2023-02-11T09:26:12;96715.66;;;1.46;55.01
11124;BME280;5616;42.692;23.312;2023-02-11T09:28:39;96718.00;;;1.64;54.76
11124;BME280;5616;42.692;23.312;2023-02-11T09:31:14;96718.22;;;1.75;53.83
11124;BME280;5616;42.692;23.312;2023-02-11T09:33:43;96712.75;;;1.67;54.71
11124;BME280;5616;42.692;23.312;2023-02-11T09:36:13;96718.13;;;1.77;53.47
11124;BME280;5616;42.692;23.312;2023-02-11T09:38:40;96714.34;;;1.98;53.29
11124;BME280;5616;42.692;23.312;2023-02-11T09:41:24;96710.38;;;2.22;52.14
11124;BME280;5616;42.692;23.312;2023-02-11T09:43:55;96702.56;;;2.39;52.15
11124;BME280;5616;42.692;23.312;2023-02-11T09:46:25;96694.66;;;2.58;52.09
11124;BME280;5616;42.692;23.312;2023-02-11T09:48:55;96694.19;;;2.66;51.00
11124;BME280;5616;42.692;23.312;2023-02-11T09:51:30;96683.97;;;2.66;51.12
11124;BME280;5616;42.692;23.312;2023-02-11T09:54:05;96686.53;;;2.37;52.35
11124;BME280;5616;42.692;23.312;2023-02-11T09:56:36;96679.25;;;2.45;50.65
11124;BME280;5616;42.692;23.312;2023-02-11T09:59:03;96682.34;;;2.65;50.46
11124;BME280;5616;42.692;23.312;2023-02-11T10:01:38;96665.19;;;2.67;51.25
11124;BME280;5616;42.692;23.312;2023-02-11T10:04:13;96656.84;;;2.65;51.09
11124;BME280;5616;42.692;23.312;2023-02-11T10:06:49;96652.69;;;2.50;50.50
11124;BME280;5616;42.692;23.312;2023-02-11T10:09:31;96650.50;;;2.43;49.92
11124;BME280;5616;42.692;23.312;2023-02-11T10:12:15;96644.31;;;2.33;50.77
11124;BME280;5616;42.692;23.312;2023-02-11T10:14:56;96639.81;;;2.65;51.28
11124;BME280;5616;42.692;23.312;2023-02-11T10:17:31;96639.88;;;2.78;50.38
11124;BME280;5616;42.692;23.312;2023-02-11T10:20:13;96626.19;;;2.52;51.25
11124;BME280;5616;42.692;23.312;2023-02-11T10:22:45;96613.38;;;2.66;50.20
11124;BME280;5616;42.692;23.312;2023-02-11T10:25:21;96599.53;;;2.97;50.90
11124;BME280;5616;42.692;23.312;2023-02-11T10:27:48;96598.50;;;3.26;49.43
11124;BME280;5616;42.692;23.312;2023-02-11T10:30:20;96591.28;;;3.06;47.86
11124;BME280;5616;42.692;23.312;2023-02-11T10:32:54;96588.69;;;3.33;47.66
11124;BME280;5616;42.692;23.312;2023-02-11T10:35:23;96577.34;;;3.24;46.66
11124;BME280;5616;42.692;23.312;2023-02-11T10:37:52;96566.66;;;3.32;47.08
11124;BME280;5616;42.692;23.312;2023-02-11T10:40:21;96556.97;;;3.49;45.15
11124;BME280;5616;42.692;23.312;2023-02-11T10:42:51;96558.09;;;3.70;45.57
11124;BME280;5616;42.692;23.312;2023-02-11T10:45:24;96551.75;;;3.76;45.89
11124;BME280;5616;42.692;23.312;2023-02-11T10:47:54;96554.81;;;3.81;44.88
11124;BME280;5616;42.692;23.312;2023-02-11T10:50:23;96547.75;;;3.85;45.03
11124;BME280;5616;42.692;23.312;2023-02-11T10:52:50;96533.94;;;4.00;45.36
11124;BME280;5616;42.692;23.312;2023-02-11T10:55:19;96532.38;;;4.10;45.16
11124;BME280;5616;42.692;23.312;2023-02-11T10:57:53;96518.25;;;4.17;43.98
11124;BME280;5616;42.692;23.312;2023-02-11T11:00:35;96519.56;;;4.22;44.50
11124;BME280;5616;42.692;23.312;2023-02-11T11:03:06;96515.88;;;4.26;43.44
11124;BME280;5616;42.692;23.312;2023-02-11T11:05:45;96508.25;;;4.38;44.85
11124;BME280;5616;42.692;23.312;2023-02-11T11:08:14;96512.63;;;4.48;44.24
11124;BME280;5616;42.692;23.312;2023-02-11T11:10:43;96510.06;;;4.48;44.29
11124;BME280;5616;42.692;23.312;2023-02-11T11:13:30;96503.91;;;4.51;44.42
11124;BME280;5616;42.692;23.312;2023-02-11T11:16:24;96507.59;;;4.23;44.40
11124;BME280;5616;42.692;23.312;2023-02-11T11:19:14;96501.47;;;4.49;42.70
11124;BME280;5616;42.692;23.312;2023-02-11T11:21:43;96490.47;;;4.60;43.10
11124;BME280;5616;42.692;23.312;2023-02-11T11:24:16;96498.41;;;4.68;43.55
11124;BME280;5616;42.692;23.312;2023-02-11T11:26:46;96489.59;;;4.48;44.06
11124;BME280;5616;42.692;23.312;2023-02-11T11:29:16;96495.47;;;4.61;43.10
11124;BME280;5616;42.692;23.312;2023-02-11T11:31:50;96492.88;;;4.74;41.82
11124;BME280;5616;42.692;23.312;2023-02-11T11:34:26;96486.25;;;4.71;42.37
11124;BME280;5616;42.692;23.312;2023-02-11T11:36:55;96484.03;;;4.78;42.05
11124;BME280;5616;42.692;23.312;2023-02-11T11:39:24;96485.56;;;4.80;43.45
11124;BME280;5616;42.692;23.312;2023-02-11T11:41:54;96481.25;;;4.81;41.76
11124;BME280;5616;42.692;23.312;2023-02-11T11:44:28;96477.63;;;4.72;41.62
11124;BME280;5616;42.692;23.312;2023-02-11T11:47:22;96478.47;;;4.84;43.20
11124;BME280;5616;42.692;23.312;2023-02-11T11:52:40;96470.50;;;5.00;43.60
11124;BME280;5616;42.692;23.312;2023-02-11T11:55:14;96467.50;;;5.06;42.65
11124;BME280;5616;42.692;23.312;2023-02-11T11:57:42;96462.13;;;4.98;42.83
11124;BME280;5616;42.692;23.312;2023-02-11T12:00:14;96460.66;;;4.82;43.46
11124;BME280;5616;42.692;23.312;2023-02-11T12:05:51;96443.69;;;4.81;42.21
11124;BME280;5616;42.692;23.312;2023-02-11T12:08:30;96441.75;;;4.96;41.84
11124;BME280;5616;42.692;23.312;2023-02-11T12:11:08;96442.91;;;5.03;39.65
11124;BME280;5616;42.692;23.312;2023-02-11T12:13:52;96430.94;;;5.04;39.62
11124;BME280;5616;42.692;23.312;2023-02-11T12:16:30;96425.22;;;4.89;39.82
11124;BME280;5616;42.692;23.312;2023-02-11T12:19:12;96426.22;;;4.75;41.11
11124;BME280;5616;42.692;23.312;2023-02-11T12:21:55;96419.66;;;4.95;39.42
11124;BME280;5616;42.692;23.312;2023-02-11T12:24:37;96422.81;;;5.10;38.98
11124;BME280;5616;42.692;23.312;2023-02-11T12:27:15;96417.47;;;5.13;38.71
11124;BME280;5616;42.692;23.312;2023-02-11T12:29:56;96405.81;;;5.20;39.80
11124;BME280;5616;42.692;23.312;2023-02-11T12:32:34;96409.09;;;5.33;38.83
11124;BME280;5616;42.692;23.312;2023-02-11T12:35:16;96404.22;;;5.19;39.64
11124;BME280;5616;42.692;23.312;2023-02-11T12:40:43;96387.19;;;5.07;40.58
11124;BME280;5616;42.692;23.312;2023-02-11T12:43:20;96390.34;;;4.99;40.84
11124;BME280;5616;42.692;23.312;2023-02-11T12:46:14;96379.97;;;5.12;41.29
11124;BME280;5616;42.692;23.312;2023-02-11T12:49:00;96386.75;;;5.24;39.29
11124;BME280;5616;42.692;23.312;2023-02-11T12:51:39;96377.31;;;5.35;39.83
11124;BME280;5616;42.692;23.312;2023-02-11T12:54:19;96374.75;;;5.35;40.55
11124;BME280;5616;42.692;23.312;2023-02-11T12:56:52;96370.69;;;5.33;40.40
11124;BME280;5616;42.692;23.312;2023-02-11T12:59:30;96375.25;;;5.29;40.93
11124;BME280;5616;42.692;23.312;2023-02-11T13:02:08;96361.84;;;5.37;41.09
11124;BME280;5616;42.692;23.312;2023-02-11T13:04:42;96362.41;;;5.40;40.93
11124;BME280;5616;42.692;23.312;2023-02-11T13:07:15;96371.50;;;5.33;41.21
11124;BME280;5616;42.692;23.312;2023-02-11T13:09:51;96361.84;;;5.37;41.21
11124;BME280;5616;42.692;23.312;2023-02-11T13:12:21;96359.97;;;5.39;41.23
11124;BME280;5616;42.692;23.312;2023-02-11T13:15:12;96357.28;;;5.51;39.36
11124;BME280;5616;42.692;23.312;2023-02-11T13:17:44;96355.16;;;5.68;39.56
11124;BME280;5616;42.692;23.312;2023-02-11T13:20:25;96348.09;;;5.49;40.90
11124;BME280;5616;42.692;23.312;2023-02-11T13:22:58;96348.31;;;5.57;40.10
11124;BME280;5616;42.692;23.312;2023-02-11T13:25:33;96345.16;;;5.53;39.18
11124;BME280;5616;42.692;23.312;2023-02-11T13:28:16;96344.22;;;5.54;39.08
11124;BME280;5616;42.692;23.312;2023-02-11T13:30:43;96351.00;;;5.55;39.58
11124;BME280;5616;42.692;23.312;2023-02-11T13:33:33;96344.09;;;5.56;39.37
11124;BME280;5616;42.692;23.312;2023-02-11T13:36:12;96340.47;;;5.58;40.02